sensor_id;sensor_type;location;lat;lon;timestamp;temperature;humidity
51615;DHT22;37695;52.960;6.188;2023-06-19T00:01:54;21.10;99.90
51615;DHT22;37695;52.960;6.188;2023-06-19T00:04:19;21.10;99.90
51615;DHT22;37695;52.960;6.188;2023-06-19T00:06:45;21.10;99.90
51615;DHT22;37695;52.960;6.188;2023-06-19T00:09:11;21.10;99.90
51615;DHT22;37695;52.960;6.188;2023-06-19T00:11:36;21.10;99.90
51615;DHT22;37695;52.960;6.188;2023-06-19T00:14:02;21.00;99.90
51615;DHT22;37695;52.960;6.188;2023-06-19T00:16:27;21.00;99.90
51615;DHT22;37695;52.960;6.188;2023-06-19T00:18:53;21.00;99.90
51615;DHT22;37695;52.960;6.188;2023-06-19T00:21:22;21.00;99.90
51615;DHT22;37695;52.960;6.188;2023-06-19T00:23:50;21.00;99.90
51615;DHT22;37695;52.960;6.188;2023-06-19T00:26:16;21.00;99.90
51615;DHT22;37695;52.960;6.188;2023-06-19T00:28:41;21.00;99.90
51615;DHT22;37695;52.960;6.188;2023-06-19T00:31:09;21.00;99.90
51615;DHT22;37695;52.960;6.188;2023-06-19T00:33:34;21.00;99.90
51615;DHT22;37695;52.960;6.188;2023-06-19T00:36:00;21.00;99.90
51615;DHT22;37695;52.960;6.188;2023-06-19T00:38:26;21.00;99.90
51615;DHT22;37695;52.960;6.188;2023-06-19T00:40:52;21.00;99.90
51615;DHT22;37695;52.960;6.188;2023-06-19T00:43:18;21.00;99.90
51615;DHT22;37695;52.960;6.188;2023-06-19T00:45:43;20.90;99.90
51615;DHT22;37695;52.960;6.188;2023-06-19T00:48:09;20.90;99.90
51615;DHT22;37695;52.960;6.188;2023-06-19T00:50:35;20.90;99.90
51615;DHT22;37695;52.960;6.188;2023-06-19T00:53:02;20.90;99.90
51615;DHT22;37695;52.960;6.188;2023-06-19T00:55:30;20.80;99.90
51615;DHT22;37695;52.960;6.188;2023-06-19T00:57:58;20.80;99.90
51615;DHT22;37695;52.960;6.188;2023-06-19T01:00:24;20.80;99.90
51615;DHT22;37695;52.960;6.188;2023-06-19T01:02:50;20.80;99.90
51615;DHT22;37695;52.960;6.188;2023-06-19T01:05:16;20.70;99.90
51615;DHT22;37695;52.960;6.188;2023-06-19T01:10:43;20.80;99.90
51615;DHT22;37695;52.960;6.188;2023-06-19T01:13:14;20.70;99.90
51615;DHT22;37695;52.960;6.188;2023-06-19T01:15:42;20.70;99.90
51615;DHT22;37695;52.960;6.188;2023-06-19T01:18:08;20.70;99.90
51615;DHT22;37695;52.960;6.188;2023-06-19T01:20:37;20.70;99.90
51615;DHT22;37695;52.960;6.188;2023-06-19T01:23:10;20.70;99.90
51615;DHT22;37695;52.960;6.188;2023-06-19T01:25:36;20.70;99.90
51615;DHT22;37695;52.960;6.188;2023-06-19T01:28:05;20.70;99.90
51615;DHT22;37695;52.960;6.188;2023-06-19T01:30:33;20.70;99.90
51615;DHT22;37695;52.960;6.188;2023-06-19T01:33:25;20.70;99.90
51615;DHT22;37695;52.960;6.188;2023-06-19T01:35:52;20.70;99.90
51615;DHT22;37695;52.960;6.188;2023-06-19T01:38:19;20.60;99.90
51615;DHT22;37695;52.960;6.188;2023-06-19T01:40:48;20.60;99.90
51615;DHT22;37695;52.960;6.188;2023-06-19T01:43:14;20.60;99.90
51615;DHT22;37695;52.960;6.188;2023-06-19T01:45:41;20.70;99.90
51615;DHT22;37695;52.960;6.188;2023-06-19T01:48:08;20.70;99.90
51615;DHT22;37695;52.960;6.188;2023-06-19T01:50:34;20.70;99.90
51615;DHT22;37695;52.960;6.188;2023-06-19T01:52:59;20.70;99.90
51615;DHT22;37695;52.960;6.188;2023-06-19T01:55:25;20.70;99.90
51615;DHT22;37695;52.960;6.188;2023-06-19T01:57:51;20.70;99.90
51615;DHT22;37695;52.960;6.188;2023-06-19T02:00:17;20.80;99.90
51615;DHT22;37695;52.960;6.188;2023-06-19T02:02:43;20.80;99.90
51615;DHT22;37695;52.960;6.188;2023-06-19T02:05:08;20.80;99.90
51615;DHT22;37695;52.960;6.188;2023-06-19T02:07:34;20.70;99.90
51615;DHT22;37695;52.960;6.188;2023-06-19T02:10:00;20.80;99.90
51615;DHT22;37695;52.960;6.188;2023-06-19T02:12:25;20.90;99.90
51615;DHT22;37695;52.960;6.188;2023-06-19T02:14:51;20.90;99.90
51615;DHT22;37695;52.960;6.188;2023-06-19T02:17:17;20.80;99.90
51615;DHT22;37695;52.960;6.188;2023-06-19T02:19:42;20.90;99.90
51615;DHT22;37695;52.960;6.188;2023-06-19T02:22:08;20.80;99.90
51615;DHT22;37695;52.960;6.188;2023-06-19T02:24:34;20.80;99.90
51615;DHT22;37695;52.960;6.188;2023-06-19T02:26:59;20.80;99.90
51615;DHT22;37695;52.960;6.188;2023-06-19T02:29:26;20.80;99.90
51615;DHT22;37695;52.960;6.188;2023-06-19T02:31:51;20.80;99.90
51615;DHT22;37695;52.960;6.188;2023-06-19T02:34:17;20.80;99.90
51615;DHT22;37695;52.960;6.188;2023-06-19T02:36:43;20.80;99.90
51615;DHT22;37695;52.960;6.188;2023-06-19T02:39:08;20.80;99.90
51615;DHT22;37695;52.960;6.188;2023-06-19T02:41:34;20.70;99.90
51615;DHT22;37695;52.960;6.188;2023-06-19T02:44:00;20.70;99.90
51615;DHT22;37695;52.960;6.188;2023-06-19T02:46:25;20.70;99.90
51615;DHT22;37695;52.960;6.188;2023-06-19T02:48:51;20.60;99.90
51615;DHT22;37695;52.960;6.188;2023-06-19T02:51:17;20.60;99.90
51615;DHT22;37695;52.960;6.188;2023-06-19T02:53:42;20.50;99.90
51615;DHT22;37695;52.960;6.188;2023-06-19T02:56:11;20.50;99.90
51615;DHT22;37695;52.960;6.188;2023-06-19T02:58:37;20.50;99.90
51615;DHT22;37695;52.960;6.188;2023-06-19T03:01:03;20.50;99.90
51615;DHT22;37695;52.960;6.188;2023-06-19T03:03:29;20.40;99.90
51615;DHT22;37695;52.960;6.188;2023-06-19T03:05:56;20.40;99.90
51615;DHT22;37695;52.960;6.188;2023-06-19T03:08:21;20.40;99.90
51615;DHT22;37695;52.960;6.188;2023-06-19T03:10:47;20.40;99.90
51615;DHT22;37695;52.960;6.188;2023-06-19T03:13:13;20.40;99.90
51615;DHT22;37695;52.960;6.188;2023-06-19T03:15:39;20.40;99.90
51615;DHT22;37695;52.960;6.188;2023-06-19T03:18:04;20.40;99.90
51615;DHT22;37695;52.960;6.188;2023-06-19T03:20:32;20.40;99.90
51615;DHT22;37695;52.960;6.188;2023-06-19T03:22:58;20.40;99.90
51615;DHT22;37695;52.960;6.188;2023-06-19T03:25:24;20.40;99.90
51615;DHT22;37695;52.960;6.188;2023-06-19T03:27:49;20.40;99.90
51615;DHT22;37695;52.960;6.188;2023-06-19T03:30:15;20.30;99.90
51615;DHT22;37695;52.960;6.188;2023-06-19T03:32:44;20.40;99.90
51615;DHT22;37695;52.960;6.188;2023-06-19T03:35:09;20.40;99.90
51615;DHT22;37695;52.960;6.188;2023-06-19T03:37:35;20.40;99.90
51615;DHT22;37695;52.960;6.188;2023-06-19T03:40:01;20.40;99.90
51615;DHT22;37695;52.960;6.188;2023-06-19T03:42:28;20.40;99.90
51615;DHT22;37695;52.960;6.188;2023-06-19T03:44:54;20.40;99.90
51615;DHT22;37695;52.960;6.188;2023-06-19T03:47:20;20.30;99.90
51615;DHT22;37695;52.960;6.188;2023-06-19T03:49:46;20.30;99.90
51615;DHT22;37695;52.960;6.188;2023-06-19T03:52:13;20.30;99.90
51615;DHT22;37695;52.960;6.188;2023-06-19T03:54:39;20.20;99.90
51615;DHT22;37695;52.960;6.188;2023-06-19T03:57:05;20.20;99.90
51615;DHT22;37695;52.960;6.188;2023-06-19T03:59:31;20.20;99.90
51615;DHT22;37695;52.960;6.188;2023-06-19T04:01:57;20.20;99.90
51615;DHT22;37695;52.960;6.188;2023-06-19T04:04:22;20.20;99.90
51615;DHT22;37695;52.960;6.188;2023-06-19T04:06:48;20.20;99.90
51615;DHT22;37695;52.960;6.188;2023-06-19T04:09:13;20.20;99.90
51615;DHT22;37695;52.960;6.188;2023-06-19T04:11:39;20.20;99.90
51615;DHT22;37695;52.960;6.188;2023-06-19T04:14:04;20.20;99.90
51615;DHT22;37695;52.960;6.188;2023-06-19T04:16:30;20.20;99.90
51615;DHT22;37695;52.960;6.188;2023-06-19T04:18:56;20.10;99.90
51615;DHT22;37695;52.960;6.188;2023-06-19T04:21:21;20.10;99.90
51615;DHT22;37695;52.960;6.188;2023-06-19T04:23:47;20.10;99.90
51615;DHT22;37695;52.960;6.188;2023-06-19T04:26:12;20.10;99.90
51615;DHT22;37695;52.960;6.188;2023-06-19T04:28:38;20.10;99.90
51615;DHT22;37695;52.960;6.188;2023-06-19T04:31:04;20.10;99.90
51615;DHT22;37695;52.960;6.188;2023-06-19T04:33:31;20.20;99.90
51615;DHT22;37695;52.960;6.188;2023-06-19T04:35:57;20.20;99.90
51615;DHT22;37695;52.960;6.188;2023-06-19T04:38:23;20.20;99.90
51615;DHT22;37695;52.960;6.188;2023-06-19T04:40:52;20.20;99.90
51615;DHT22;37695;52.960;6.188;2023-06-19T04:43:18;20.20;99.90
51615;DHT22;37695;52.960;6.188;2023-06-19T04:45:43;20.20;99.90
51615;DHT22;37695;52.960;6.188;2023-06-19T04:48:09;20.10;99.90
51615;DHT22;37695;52.960;6.188;2023-06-19T04:50:35;20.10;99.90
51615;DHT22;37695;52.960;6.188;2023-06-19T04:53:01;20.10;99.90
51615;DHT22;37695;52.960;6.188;2023-06-19T04:55:26;20.20;99.90
51615;DHT22;37695;52.960;6.188;2023-06-19T04:57:52;20.20;99.90
51615;DHT22;37695;52.960;6.188;2023-06-19T05:00:17;20.20;99.90
51615;DHT22;37695;52.960;6.188;2023-06-19T05:02:45;20.30;99.90
51615;DHT22;37695;52.960;6.188;2023-06-19T05:05:13;20.40;99.90
51615;DHT22;37695;52.960;6.188;2023-06-19T05:07:39;20.50;99.90
51615;DHT22;37695;52.960;6.188;2023-06-19T05:10:05;20.50;99.90
51615;DHT22;37695;52.960;6.188;2023-06-19T05:12:30;20.50;99.90
51615;DHT22;37695;52.960;6.188;2023-06-19T05:14:56;20.50;99.90
51615;DHT22;37695;52.960;6.188;2023-06-19T05:17:21;20.50;99.90
51615;DHT22;37695;52.960;6.188;2023-06-19T05:19:48;20.50;99.90
51615;DHT22;37695;52.960;6.188;2023-06-19T05:22:13;20.50;99.90
51615;DHT22;37695;52.960;6.188;2023-06-19T05:24:39;20.60;99.90
51615;DHT22;37695;52.960;6.188;2023-06-19T05:27:05;20.60;99.90
51615;DHT22;37695;52.960;6.188;2023-06-19T05:29:31;20.60;99.90
51615;DHT22;37695;52.960;6.188;2023-06-19T05:31:56;20.60;99.90
51615;DHT22;37695;52.960;6.188;2023-06-19T05:34:22;20.60;99.90
51615;DHT22;37695;52.960;6.188;2023-06-19T05:36:48;20.60;99.90
51615;DHT22;37695;52.960;6.188;2023-06-19T05:39:13;20.60;99.90
51615;DHT22;37695;52.960;6.188;2023-06-19T05:41:39;20.60;99.90
51615;DHT22;37695;52.960;6.188;2023-06-19T05:44:05;20.50;99.90
51615;DHT22;37695;52.960;6.188;2023-06-19T05:46:30;20.50;99.90
51615;DHT22;37695;52.960;6.188;2023-06-19T05:48:56;20.50;99.90
51615;DHT22;37695;52.960;6.188;2023-06-19T05:51:21;20.50;99.90
51615;DHT22;37695;52.960;6.188;2023-06-19T05:53:47;20.60;99.90
51615;DHT22;37695;52.960;6.188;2023-06-19T05:56:15;20.60;99.90
51615;DHT22;37695;52.960;6.188;2023-06-19T05:58:40;20.60;99.90
51615;DHT22;37695;52.960;6.188;2023-06-19T06:01:06;20.60;99.90
51615;DHT22;37695;52.960;6.188;2023-06-19T06:03:32;20.60;99.90
51615;DHT22;37695;52.960;6.188;2023-06-19T06:05:58;20.60;99.90
51615;DHT22;37695;52.960;6.188;2023-06-19T06:08:31;20.60;99.90
51615;DHT22;37695;52.960;6.188;2023-06-19T06:10:57;20.60;99.90
51615;DHT22;37695;52.960;6.188;2023-06-19T06:13:23;20.60;99.90
51615;DHT22;37695;52.960;6.188;2023-06-19T06:15:49;20.60;99.90
51615;DHT22;37695;52.960;6.188;2023-06-19T06:18:15;20.60;99.90
51615;DHT22;37695;52.960;6.188;2023-06-19T06:20:41;20.50;99.90
51615;DHT22;37695;52.960;6.188;2023-06-19T06:23:06;20.60;99.90
51615;DHT22;37695;52.960;6.188;2023-06-19T06:25:32;20.50;99.90
51615;DHT22;37695;52.960;6.188;2023-06-19T06:27:58;20.50;99.90
51615;DHT22;37695;52.960;6.188;2023-06-19T06:30:23;20.40;99.90
51615;DHT22;37695;52.960;6.188;2023-06-19T06:32:49;20.40;99.90
51615;DHT22;37695;52.960;6.188;2023-06-19T06:35:15;20.30;99.90
51615;DHT22;37695;52.960;6.188;2023-06-19T06:37:41;20.30;99.90
51615;DHT22;37695;52.960;6.188;2023-06-19T06:40:07;20.20;99.90
51615;DHT22;37695;52.960;6.188;2023-06-19T06:42:37;20.20;99.90
51615;DHT22;37695;52.960;6.188;2023-06-19T06:45:06;20.10;99.90
51615;DHT22;37695;52.960;6.188;2023-06-19T06:47:33;20.10;99.90
51615;DHT22;37695;52.960;6.188;2023-06-19T06:49:58;20.10;99.90
51615;DHT22;37695;52.960;6.188;2023-06-19T06:52:24;20.20;99.90
51615;DHT22;37695;52.960;6.188;2023-06-19T06:54:49;20.20;99.90
51615;DHT22;37695;52.960;6.188;2023-06-19T06:57:16;20.30;99.90
51615;DHT22;37695;52.960;6.188;2023-06-19T06:59:41;20.20;99.90
51615;DHT22;37695;52.960;6.188;2023-06-19T07:02:07;20.30;99.90
51615;DHT22;37695;52.960;6.188;2023-06-19T07:04:32;20.20;99.90
51615;DHT22;37695;52.960;6.188;2023-06-19T07:06:58;20.20;99.90
51615;DHT22;37695;52.960;6.188;2023-06-19T07:09:24;20.20;99.90
51615;DHT22;37695;52.960;6.188;2023-06-19T07:11:50;20.20;99.90
51615;DHT22;37695;52.960;6.188;2023-06-19T07:14:15;20.10;99.90
51615;DHT22;37695;52.960;6.188;2023-06-19T07:16:44;20.10;99.90
51615;DHT22;37695;52.960;6.188;2023-06-19T07:19:10;20.10;99.90
51615;DHT22;37695;52.960;6.188;2023-06-19T07:21:36;20.10;99.90
51615;DHT22;37695;52.960;6.188;2023-06-19T07:24:02;20.00;99.90
51615;DHT22;37695;52.960;6.188;2023-06-19T07:26:27;20.00;99.90
51615;DHT22;37695;52.960;6.188;2023-06-19T07:28:53;20.00;99.90
51615;DHT22;37695;52.960;6.188;2023-06-19T07:31:18;20.00;99.90
51615;DHT22;37695;52.960;6.188;2023-06-19T07:33:44;20.00;99.90
51615;DHT22;37695;52.960;6.188;2023-06-19T07:36:09;20.10;99.90
51615;DHT22;37695;52.960;6.188;2023-06-19T07:38:39;20.00;99.90
51615;DHT22;37695;52.960;6.188;2023-06-19T07:41:05;20.00;99.90
51615;DHT22;37695;52.960;6.188;2023-06-19T07:43:32;20.00;99.90
51615;DHT22;37695;52.960;6.188;2023-06-19T07:45:58;19.90;99.90
51615;DHT22;37695;52.960;6.188;2023-06-19T07:48:24;20.00;99.90
51615;DHT22;37695;52.960;6.188;2023-06-19T07:50:50;20.00;99.90
51615;DHT22;37695;52.960;6.188;2023-06-19T07:53:15;19.90;99.90
51615;DHT22;37695;52.960;6.188;2023-06-19T07:55:41;19.90;99.90
51615;DHT22;37695;52.960;6.188;2023-06-19T07:58:07;19.90;99.90
51615;DHT22;37695;52.960;6.188;2023-06-19T08:00:33;19.90;99.90
51615;DHT22;37695;52.960;6.188;2023-06-19T08:02:58;19.80;99.90
51615;DHT22;37695;52.960;6.188;2023-06-19T08:05:24;19.70;99.90
51615;DHT22;37695;52.960;6.188;2023-06-19T08:07:49;19.70;99.90
51615;DHT22;37695;52.960;6.188;2023-06-19T08:10:15;19.60;99.90
51615;DHT22;37695;52.960;6.188;2023-06-19T08:12:42;19.60;99.90
51615;DHT22;37695;52.960;6.188;2023-06-19T08:15:08;19.70;99.90
51615;DHT22;37695;52.960;6.188;2023-06-19T08:17:34;19.70;99.90
51615;DHT22;37695;52.960;6.188;2023-06-19T08:20:00;19.70;99.90
51615;DHT22;37695;52.960;6.188;2023-06-19T08:22:26;19.80;99.90
51615;DHT22;37695;52.960;6.188;2023-06-19T08:24:51;19.90;99.90
51615;DHT22;37695;52.960;6.188;2023-06-19T08:27:17;20.10;99.90
51615;DHT22;37695;52.960;6.188;2023-06-19T08:29:43;20.20;99.90
51615;DHT22;37695;52.960;6.188;2023-06-19T08:32:08;20.30;99.90
51615;DHT22;37695;52.960;6.188;2023-06-19T08:34:35;20.40;99.90
51615;DHT22;37695;52.960;6.188;2023-06-19T08:37:00;20.40;99.90
51615;DHT22;37695;52.960;6.188;2023-06-19T08:39:26;20.60;99.90
51615;DHT22;37695;52.960;6.188;2023-06-19T08:41:51;20.70;99.90
51615;DHT22;37695;52.960;6.188;2023-06-19T08:44:18;21.00;99.90
51615;DHT22;37695;52.960;6.188;2023-06-19T08:46:44;21.30;99.90
51615;DHT22;37695;52.960;6.188;2023-06-19T08:49:10;21.30;99.90
51615;DHT22;37695;52.960;6.188;2023-06-19T08:51:36;21.30;99.90
51615;DHT22;37695;52.960;6.188;2023-06-19T08:54:04;21.30;99.90
51615;DHT22;37695;52.960;6.188;2023-06-19T08:56:31;21.60;99.90
51615;DHT22;37695;52.960;6.188;2023-06-19T08:59:13;21.70;99.90
51615;DHT22;37695;52.960;6.188;2023-06-19T09:01:39;21.60;99.90
51615;DHT22;37695;52.960;6.188;2023-06-19T09:04:09;21.60;99.90
51615;DHT22;37695;52.960;6.188;2023-06-19T09:06:36;21.50;99.90
51615;DHT22;37695;52.960;6.188;2023-06-19T09:09:13;21.50;99.90
51615;DHT22;37695;52.960;6.188;2023-06-19T09:11:39;21.70;99.90
51615;DHT22;37695;52.960;6.188;2023-06-19T09:14:09;21.70;99.90
51615;DHT22;37695;52.960;6.188;2023-06-19T09:16:40;21.70;99.90
51615;DHT22;37695;52.960;6.188;2023-06-19T09:19:06;21.60;99.90
51615;DHT22;37695;52.960;6.188;2023-06-19T09:21:34;21.60;99.90
51615;DHT22;37695;52.960;6.188;2023-06-19T09:24:07;21.60;99.90
51615;DHT22;37695;52.960;6.188;2023-06-19T09:26:34;21.60;99.90
51615;DHT22;37695;52.960;6.188;2023-06-19T09:29:15;21.70;99.90
51615;DHT22;37695;52.960;6.188;2023-06-19T09:31:44;21.70;99.90
51615;DHT22;37695;52.960;6.188;2023-06-19T09:34:10;21.70;99.90
51615;DHT22;37695;52.960;6.188;2023-06-19T09:36:36;21.60;99.90
51615;DHT22;37695;52.960;6.188;2023-06-19T09:39:04;21.40;99.90
51615;DHT22;37695;52.960;6.188;2023-06-19T09:41:31;21.20;99.90
51615;DHT22;37695;52.960;6.188;2023-06-19T09:43:58;21.00;99.90
51615;DHT22;37695;52.960;6.188;2023-06-19T09:46:30;20.90;99.90
51615;DHT22;37695;52.960;6.188;2023-06-19T09:49:00;20.80;99.90
51615;DHT22;37695;52.960;6.188;2023-06-19T09:51:41;20.80;99.90
51615;DHT22;37695;52.960;6.188;2023-06-19T09:54:07;20.70;99.90
51615;DHT22;37695;52.960;6.188;2023-06-19T09:56:35;20.60;99.90
51615;DHT22;37695;52.960;6.188;2023-06-19T09:59:01;20.60;99.90
51615;DHT22;37695;52.960;6.188;2023-06-19T10:01:30;20.70;99.90
51615;DHT22;37695;52.960;6.188;2023-06-19T10:04:08;20.70;99.90
51615;DHT22;37695;52.960;6.188;2023-06-19T10:06:43;20.80;99.90
51615;DHT22;37695;52.960;6.188;2023-06-19T10:09:09;21.10;99.90
51615;DHT22;37695;52.960;6.188;2023-06-19T10:14:11;21.30;99.90
51615;DHT22;37695;52.960;6.188;2023-06-19T10:16:38;21.30;99.90
51615;DHT22;37695;52.960;6.188;2023-06-19T10:19:13;21.30;99.90
51615;DHT22;37695;52.960;6.188;2023-06-19T10:21:50;21.30;99.90
51615;DHT22;37695;52.960;6.188;2023-06-19T10:24:17;21.40;99.90
51615;DHT22;37695;52.960;6.188;2023-06-19T10:26:58;21.40;99.90
51615;DHT22;37695;52.960;6.188;2023-06-19T10:29:24;21.50;99.90
51615;DHT22;37695;52.960;6.188;2023-06-19T10:31:51;21.50;99.90
51615;DHT22;37695;52.960;6.188;2023-06-19T10:34:16;21.60;99.90
51615;DHT22;37695;52.960;6.188;2023-06-19T10:36:42;21.50;99.90
51615;DHT22;37695;52.960;6.188;2023-06-19T10:39:07;21.30;99.90
51615;DHT22;37695;52.960;6.188;2023-06-19T10:41:34;21.30;99.90
51615;DHT22;37695;52.960;6.188;2023-06-19T10:44:07;21.30;99.90
51615;DHT22;37695;52.960;6.188;2023-06-19T10:46:38;21.40;99.90
51615;DHT22;37695;52.960;6.188;2023-06-19T10:49:05;21.50;99.90
51615;DHT22;37695;52.960;6.188;2023-06-19T10:51:38;21.20;99.90
51615;DHT22;37695;52.960;6.188;2023-06-19T10:54:05;21.10;99.90
51615;DHT22;37695;52.960;6.188;2023-06-19T10:56:30;21.20;99.90
51615;DHT22;37695;52.960;6.188;2023-06-19T10:59:04;21.40;99.90
51615;DHT22;37695;52.960;6.188;2023-06-19T11:04:05;21.80;99.90
51615;DHT22;37695;52.960;6.188;2023-06-19T11:06:31;21.90;99.90
51615;DHT22;37695;52.960;6.188;2023-06-19T11:08:57;22.10;99.90
51615;DHT22;37695;52.960;6.188;2023-06-19T11:11:23;22.20;99.90
51615;DHT22;37695;52.960;6.188;2023-06-19T11:13:48;22.30;99.90
51615;DHT22;37695;52.960;6.188;2023-06-19T11:16:14;22.30;99.90
51615;DHT22;37695;52.960;6.188;2023-06-19T11:18:40;22.10;99.90
51615;DHT22;37695;52.960;6.188;2023-06-19T11:21:05;22.00;99.90
51615;DHT22;37695;52.960;6.188;2023-06-19T11:23:31;22.10;99.90
51615;DHT22;37695;52.960;6.188;2023-06-19T11:26:04;22.10;99.90
51615;DHT22;37695;52.960;6.188;2023-06-19T11:28:30;22.40;99.90
51615;DHT22;37695;52.960;6.188;2023-06-19T11:31:00;22.70;99.90
51615;DHT22;37695;52.960;6.188;2023-06-19T11:33:29;22.50;99.90
51615;DHT22;37695;52.960;6.188;2023-06-19T11:36:00;23.00;99.90
51615;DHT22;37695;52.960;6.188;2023-06-19T11:38:26;23.30;99.90
51615;DHT22;37695;52.960;6.188;2023-06-19T11:40:53;23.20;99.90
51615;DHT22;37695;52.960;6.188;2023-06-19T11:43:32;22.60;99.90
51615;DHT22;37695;52.960;6.188;2023-06-19T11:46:06;22.60;99.90
51615;DHT22;37695;52.960;6.188;2023-06-19T11:48:32;22.70;99.90
51615;DHT22;37695;52.960;6.188;2023-06-19T11:50:57;22.70;99.90
51615;DHT22;37695;52.960;6.188;2023-06-19T11:53:24;22.60;99.90
51615;DHT22;37695;52.960;6.188;2023-06-19T11:55:50;22.80;99.90
51615;DHT22;37695;52.960;6.188;2023-06-19T11:58:17;22.80;99.90
51615;DHT22;37695;52.960;6.188;2023-06-19T12:00:43;23.10;99.90
51615;DHT22;37695;52.960;6.188;2023-06-19T12:03:09;23.40;99.90
51615;DHT22;37695;52.960;6.188;2023-06-19T12:05:35;23.30;99.90
51615;DHT22;37695;52.960;6.188;2023-06-19T12:08:01;23.70;99.90
51615;DHT22;37695;52.960;6.188;2023-06-19T12:10:28;23.70;99.90
51615;DHT22;37695;52.960;6.188;2023-06-19T12:12:54;23.50;99.90
51615;DHT22;37695;52.960;6.188;2023-06-19T12:15:20;23.50;99.90
51615;DHT22;37695;52.960;6.188;2023-06-19T12:17:48;23.60;99.90
51615;DHT22;37695;52.960;6.188;2023-06-19T12:20:15;23.60;99.90
51615;DHT22;37695;52.960;6.188;2023-06-19T12:22:42;23.50;99.90
51615;DHT22;37695;52.960;6.188;2023-06-19T12:25:09;23.50;99.90
51615;DHT22;37695;52.960;6.188;2023-06-19T12:27:39;23.50;99.90
51615;DHT22;37695;52.960;6.188;2023-06-19T12:30:05;23.70;99.90
51615;DHT22;37695;52.960;6.188;2023-06-19T12:32:31;23.80;99.90
51615;DHT22;37695;52.960;6.188;2023-06-19T12:34:56;23.60;99.90
51615;DHT22;37695;52.960;6.188;2023-06-19T12:37:23;23.50;99.90
51615;DHT22;37695;52.960;6.188;2023-06-19T12:39:52;24.10;99.90
51615;DHT22;37695;52.960;6.188;2023-06-19T12:42:18;24.40;99.90
51615;DHT22;37695;52.960;6.188;2023-06-19T12:44:44;24.50;99.90
51615;DHT22;37695;52.960;6.188;2023-06-19T12:47:10;24.30;99.90
51615;DHT22;37695;52.960;6.188;2023-06-19T12:49:36;24.50;99.90
51615;DHT22;37695;52.960;6.188;2023-06-19T12:52:02;24.70;99.90
51615;DHT22;37695;52.960;6.188;2023-06-19T12:54:28;24.80;99.90
51615;DHT22;37695;52.960;6.188;2023-06-19T12:56:54;24.80;99.90
51615;DHT22;37695;52.960;6.188;2023-06-19T12:59:20;25.00;99.90
51615;DHT22;37695;52.960;6.188;2023-06-19T13:01:46;25.10;99.90
51615;DHT22;37695;52.960;6.188;2023-06-19T13:04:12;24.90;99.90
51615;DHT22;37695;52.960;6.188;2023-06-19T13:06:38;24.70;99.90
51615;DHT22;37695;52.960;6.188;2023-06-19T13:09:05;24.80;99.90
51615;DHT22;37695;52.960;6.188;2023-06-19T13:11:31;24.90;99.90
51615;DHT22;37695;52.960;6.188;2023-06-19T13:13:56;24.80;99.90
51615;DHT22;37695;52.960;6.188;2023-06-19T13:16:22;24.90;99.90
51615;DHT22;37695;52.960;6.188;2023-06-19T13:18:51;24.80;99.90
51615;DHT22;37695;52.960;6.188;2023-06-19T13:21:16;24.60;99.90
51615;DHT22;37695;52.960;6.188;2023-06-19T13:23:42;24.40;99.90
51615;DHT22;37695;52.960;6.188;2023-06-19T13:26:08;24.60;99.90
51615;DHT22;37695;52.960;6.188;2023-06-19T13:28:33;24.40;99.90
51615;DHT22;37695;52.960;6.188;2023-06-19T13:30:59;24.30;99.90
51615;DHT22;37695;52.960;6.188;2023-06-19T13:33:25;24.50;99.80
51615;DHT22;37695;52.960;6.188;2023-06-19T13:35:51;24.40;99.90
51615;DHT22;37695;52.960;6.188;2023-06-19T13:38:18;24.30;99.90
51615;DHT22;37695;52.960;6.188;2023-06-19T13:40:44;24.40;99.90
51615;DHT22;37695;52.960;6.188;2023-06-19T13:43:10;24.40;99.90
51615;DHT22;37695;52.960;6.188;2023-06-19T13:45:36;24.40;99.60
51615;DHT22;37695;52.960;6.188;2023-06-19T13:48:04;24.40;99.90
51615;DHT22;37695;52.960;6.188;2023-06-19T13:50:29;24.00;99.90
51615;DHT22;37695;52.960;6.188;2023-06-19T13:52:55;24.10;99.90
51615;DHT22;37695;52.960;6.188;2023-06-19T13:55:21;24.00;99.70
51615;DHT22;37695;52.960;6.188;2023-06-19T13:57:48;24.00;99.90
51615;DHT22;37695;52.960;6.188;2023-06-19T14:00:14;24.10;99.90
51615;DHT22;37695;52.960;6.188;2023-06-19T14:02:39;24.10;99.90
51615;DHT22;37695;52.960;6.188;2023-06-19T14:05:07;24.00;98.90
51615;DHT22;37695;52.960;6.188;2023-06-19T14:07:33;24.20;99.90
51615;DHT22;37695;52.960;6.188;2023-06-19T14:10:01;24.20;99.90
51615;DHT22;37695;52.960;6.188;2023-06-19T14:12:28;24.20;99.20
51615;DHT22;37695;52.960;6.188;2023-06-19T14:14:54;24.20;99.20
51615;DHT22;37695;52.960;6.188;2023-06-19T14:17:21;24.20;99.20
51615;DHT22;37695;52.960;6.188;2023-06-19T14:19:46;24.10;98.30
51615;DHT22;37695;52.960;6.188;2023-06-19T14:22:12;24.10;99.70
51615;DHT22;37695;52.960;6.188;2023-06-19T14:24:37;24.00;99.50
51615;DHT22;37695;52.960;6.188;2023-06-19T14:27:03;24.10;98.70
51615;DHT22;37695;52.960;6.188;2023-06-19T14:29:29;24.10;98.90
51615;DHT22;37695;52.960;6.188;2023-06-19T14:31:54;24.10;98.60
51615;DHT22;37695;52.960;6.188;2023-06-19T14:34:20;24.10;98.90
51615;DHT22;37695;52.960;6.188;2023-06-19T14:36:46;24.10;98.20
51615;DHT22;37695;52.960;6.188;2023-06-19T14:39:12;24.10;98.60
51615;DHT22;37695;52.960;6.188;2023-06-19T14:41:38;24.00;98.50
51615;DHT22;37695;52.960;6.188;2023-06-19T14:44:04;24.00;99.00
51615;DHT22;37695;52.960;6.188;2023-06-19T14:46:32;24.10;99.10
51615;DHT22;37695;52.960;6.188;2023-06-19T14:48:58;24.20;99.10
51615;DHT22;37695;52.960;6.188;2023-06-19T14:51:26;24.00;98.40
51615;DHT22;37695;52.960;6.188;2023-06-19T14:53:52;24.10;99.50
51615;DHT22;37695;52.960;6.188;2023-06-19T14:56:17;24.10;99.20
51615;DHT22;37695;52.960;6.188;2023-06-19T14:58:43;24.10;99.30
51615;DHT22;37695;52.960;6.188;2023-06-19T15:01:09;24.20;99.00
51615;DHT22;37695;52.960;6.188;2023-06-19T15:03:35;24.30;99.50
51615;DHT22;37695;52.960;6.188;2023-06-19T15:06:01;24.40;99.10
51615;DHT22;37695;52.960;6.188;2023-06-19T15:08:26;24.30;98.70
51615;DHT22;37695;52.960;6.188;2023-06-19T15:10:52;24.30;99.10
51615;DHT22;37695;52.960;6.188;2023-06-19T15:13:18;24.20;99.20
51615;DHT22;37695;52.960;6.188;2023-06-19T15:15:44;24.20;99.20
51615;DHT22;37695;52.960;6.188;2023-06-19T15:18:10;24.20;99.00
51615;DHT22;37695;52.960;6.188;2023-06-19T15:20:36;24.30;99.30
51615;DHT22;37695;52.960;6.188;2023-06-19T15:23:05;24.30;99.00
51615;DHT22;37695;52.960;6.188;2023-06-19T15:25:31;24.30;98.40
51615;DHT22;37695;52.960;6.188;2023-06-19T15:27:56;24.40;99.10
51615;DHT22;37695;52.960;6.188;2023-06-19T15:30:22;24.30;98.50
51615;DHT22;37695;52.960;6.188;2023-06-19T15:32:48;24.30;98.40
51615;DHT22;37695;52.960;6.188;2023-06-19T15:35:14;24.30;97.70